Time;durP1;ratioP1;P1;durP2;ratioP2;P2;SDS_P1;SDS_P2;PMS_P1;PMS_P2;Temp;Humidity;BMP_temperature;BMP_pressure;BME280_temperature;BME280_humidity;BME280_pressure;Samples;Min_cycle;Max_cycle;Signal;HPM_P1;HPM_P2
2022/03/12 00:01:05;;;;;;;97.30;38.70;;;;;;;-6.35;63.74;100894.67;109608;1272;22413;-63
2022/03/12 00:03:33;;;;;;;100.90;40.80;;;;;;;-6.34;63.81;100897.55;109549;1272;22945;-63
2022/03/12 00:06:02;;;;;;;95.80;37.10;;;;;;;-6.34;63.84;100889.06;109586;1273;22494;-66
2022/03/12 00:08:42;;;;;;;95.70;37.60;;;;;;;-6.36;63.92;100884.83;109598;1273;23216;-63
2022/03/12 00:11:34;;;;;;;87.10;35.10;;;;;;;-6.37;64.07;100882.45;109513;1273;23281;-63
2022/03/12 00:14:04;;;;;;;86.20;36.50;;;;;;;-6.38;64.21;100880.23;109567;1273;23143;-64
2022/03/12 00:16:33;;;;;;;90.50;36.80;;;;;;;-6.43;64.11;100875.60;109532;1270;22506;-63
2022/03/12 00:19:04;;;;;;;83.10;36.40;;;;;;;-6.46;64.22;100873.75;109581;1272;23516;-63
2022/03/12 00:21:35;;;;;;;86.50;37.60;;;;;;;-6.49;64.45;100870.46;109590;1273;22510;-63
2022/03/12 00:24:04;;;;;;;80.90;35.10;;;;;;;-6.48;64.53;100870.88;109608;1272;22429;-63
2022/03/12 00:26:33;;;;;;;83.70;35.90;;;;;;;-6.49;64.49;100869.89;107126;1273;22715;-62
2022/03/12 00:29:04;;;;;;;83.00;35.60;;;;;;;-6.49;64.48;100865.35;109570;1273;22449;-62
2022/03/12 00:31:33;;;;;;;84.60;35.60;;;;;;;-6.50;64.47;100863.49;109586;1273;22989;-63
2022/03/12 00:34:01;;;;;;;80.50;34.70;;;;;;;-6.54;64.46;100857.45;109592;1273;22463;-63
2022/03/12 00:36:29;;;;;;;85.30;34.00;;;;;;;-6.57;64.59;100851.46;109546;1273;22611;-63
2022/03/12 00:38:57;;;;;;;87.50;35.50;;;;;;;-6.60;64.72;100849.38;109592;1273;22550;-63
2022/03/12 00:41:29;;;;;;;81.90;33.90;;;;;;;-6.63;64.74;100843.77;109570;1273;22399;-63
2022/03/12 00:43:57;;;;;;;90.40;37.10;;;;;;;-6.64;64.84;100839.13;109461;1274;22543;-63
2022/03/12 00:46:27;;;;;;;80.60;36.00;;;;;;;-6.64;64.97;100839.64;109567;1273;22358;-63
2022/03/12 00:48:57;;;;;;;91.90;36.30;;;;;;;-6.65;65.31;100842.39;109540;1273;22538;-63
2022/03/12 00:51:25;;;;;;;94.40;39.20;;;;;;;-6.67;65.35;100840.40;109602;1273;23441;-63
2022/03/12 00:53:53;;;;;;;93.30;38.40;;;;;;;-6.69;65.32;100837.19;109513;1273;22605;-64
2022/03/12 00:56:21;;;;;;;95.30;37.50;;;;;;;-6.71;65.51;100832.36;109522;1273;22428;-64
2022/03/12 00:58:49;;;;;;;90.70;38.10;;;;;;;-6.75;65.57;100828.80;109490;1274;22447;-63
2022/03/12 01:01:17;;;;;;;102.50;39.20;;;;;;;-6.74;65.53;100834.17;109549;1273;22388;-64
2022/03/12 01:03:47;;;;;;;81.50;36.60;;;;;;;-6.74;65.62;100832.39;109615;1273;22482;-64
2022/03/12 01:06:18;;;;;;;86.00;39.30;;;;;;;-6.74;65.72;100830.63;109611;1273;22506;-64
2022/03/12 01:08:47;;;;;;;85.80;33.40;;;;;;;-6.72;65.72;100833.17;109566;1273;22498;-63
2022/03/12 01:11:18;;;;;;;76.20;33.80;;;;;;;-6.71;65.77;100833.63;109613;1273;22484;-63
2022/03/12 01:13:46;;;;;;;92.60;37.70;;;;;;;-6.69;65.76;100832.27;109597;1273;22455;-63
2022/03/12 01:27:24;;;;;;;61.70;26.80;;;;;;;-6.67;65.97;100820.27;109485;1274;22418;-64
2022/03/12 01:29:52;;;;;;;69.00;30.50;;;;;;;-6.66;66.01;100827.06;109578;1273;22466;-64
2022/03/12 01:32:20;;;;;;;54.20;26.50;;;;;;;-6.65;66.08;100825.23;109629;1273;23437;-64
2022/03/12 01:34:48;;;;;;;62.30;28.70;;;;;;;-6.64;66.12;100824.75;109493;1273;22450;-64
2022/03/12 01:37:19;;;;;;;59.90;29.50;;;;;;;-6.62;66.05;100825.16;109440;1274;22495;-64
2022/03/12 01:39:48;;;;;;;69.70;29.60;;;;;;;-6.65;66.29;100816.16;109634;1273;23423;-64
2022/03/12 01:42:16;;;;;;;66.90;30.70;;;;;;;-6.65;66.21;100816.88;109547;1273;23009;-64
2022/03/12 01:44:45;;;;;;;65.50;29.40;;;;;;;-6.62;66.25;100821.98;109591;1273;22429;-64
2022/03/12 01:47:16;;;;;;;71.70;32.50;;;;;;;-6.62;66.19;100818.92;109532;1273;23103;-64
2022/03/12 01:53:27;;;;;;;73.00;29.70;;;;;;;-6.61;66.26;100818.36;109573;1273;23268;-64
2022/03/12 01:55:56;;;;;;;70.60;32.40;;;;;;;-6.61;66.18;100815.55;109528;1273;22273;-64
2022/03/12 01:58:24;;;;;;;73.70;33.30;;;;;;;-6.62;66.27;100814.86;109610;1273;22424;-64
2022/03/12 02:00:54;;;;;;;83.70;33.70;;;;;;;-6.62;66.22;100817.15;109510;1272;22451;-64
2022/03/12 02:03:28;;;;;;;80.50;34.60;;;;;;;-6.63;66.29;100812.84;109605;1273;23519;-64
2022/03/12 02:05:56;;;;;;;84.70;35.70;;;;;;;-6.60;66.25;100817.40;109418;1274;22389;-64
2022/03/12 02:08:40;;;;;;;76.20;33.40;;;;;;;-6.60;66.22;100816.67;109470;1274;23110;-64
2022/03/12 02:11:10;;;;;;;83.00;36.50;;;;;;;-6.60;66.19;100818.29;109525;1273;22408;-64
2022/03/12 02:13:38;;;;;;;79.10;35.30;;;;;;;-6.60;66.12;100811.59;109560;1273;22402;-64
2022/03/12 02:16:11;;;;;;;95.40;36.30;;;;;;;-6.60;66.00;100813.16;109476;1273;22212;-64
2022/03/12 02:18:40;;;;;;;83.40;36.50;;;;;;;-6.61;66.10;100807.20;109589;1272;22441;-64
2022/03/12 02:21:08;;;;;;;79.10;35.40;;;;;;;-6.62;66.03;100805.17;109455;1274;22417;-64
2022/03/12 02:23:47;;;;;;;81.50;36.10;;;;;;;-6.62;66.07;100804.45;109551;1273;22457;-64
2022/03/12 02:26:15;;;;;;;89.30;34.30;;;;;;;-6.62;66.07;100800.74;109590;1273;23109;-64
2022/03/12 02:28:45;;;;;;;96.40;37.80;;;;;;;-6.62;66.15;100799.85;109552;1273;22233;-64
2022/03/12 02:31:15;;;;;;;92.00;36.80;;;;;;;-6.64;66.03;100802.17;109545;1273;23101;-64
2022/03/12 02:33:44;;;;;;;93.70;36.50;;;;;;;-6.65;66.12;100798.17;109558;1273;22574;-64
2022/03/12 02:36:27;;;;;;;80.40;34.50;;;;;;;-6.66;66.14;100796.47;109581;1273;22443;-64
2022/03/12 02:38:56;;;;;;;83.40;35.90;;;;;;;-6.67;66.02;100793.59;109487;1274;22408;-64
2022/03/12 02:41:24;;;;;;;84.30;35.70;;;;;;;-6.69;66.11;100793.36;109427;1274;22465;-64
2022/03/12 02:43:53;;;;;;;81.50;34.50;;;;;;;-6.70;66.18;100785.48;109544;1273;22727;-64
2022/03/12 02:46:22;;;;;;;84.20;36.10;;;;;;;-6.70;66.08;100784.98;109537;1273;22505;-64
2022/03/12 02:48:51;;;;;;;74.20;33.50;;;;;;;-6.71;66.12;100781.67;109554;1273;22554;-64
2022/03/12 02:51:21;;;;;;;85.50;35.00;;;;;;;-6.71;66.07;100778.85;109478;1273;22454;-64
2022/03/12 02:53:56;;;;;;;77.00;35.40;;;;;;;-6.72;66.10;100772.20;109561;1270;23326;-64
2022/03/12 02:57:02;;;;;;;72.80;32.60;;;;;;;-6.71;66.01;100770.59;109548;1273;23237;-64
2022/03/12 02:59:33;;;;;;;79.00;35.90;;;;;;;-6.71;65.99;100767.55;109471;1274;22502;-64
2022/03/12 03:02:03;;;;;;;87.80;38.30;;;;;;;-6.72;65.95;100766.88;109509;1273;22394;-64
2022/03/12 03:04:34;;;;;;;83.60;36.20;;;;;;;-6.72;65.93;100761.83;109483;1274;22610;-64
2022/03/12 03:07:04;;;;;;;88.50;38.30;;;;;;;-6.73;65.94;100761.84;109551;1273;22501;-64
2022/03/12 03:09:32;;;;;;;140.30;52.60;;;;;;;-6.73;66.03;100757.79;109563;1273;22776;-64
2022/03/12 03:12:06;;;;;;;237.60;79.70;;;;;;;-6.74;66.09;100757.33;109484;1274;22496;-64
2022/03/12 03:14:39;;;;;;;231.40;82.70;;;;;;;-6.74;66.18;100759.31;109483;1274;22434;-64
2022/03/12 03:17:11;;;;;;;240.80;83.70;;;;;;;-6.75;66.26;100756.91;109521;1273;22238;-64
2022/03/12 03:19:40;;;;;;;220.50;76.00;;;;;;;-6.76;66.33;100755.89;109618;1273;22465;-64
2022/03/12 03:22:08;;;;;;;150.80;54.60;;;;;;;-6.77;66.49;100751.70;109495;1274;22372;-64
2022/03/12 03:24:36;;;;;;;124.20;46.80;;;;;;;-6.77;66.62;100750.51;109608;1273;22379;-64
2022/03/12 03:27:04;;;;;;;119.10;43.70;;;;;;;-6.77;66.54;100749.56;109594;1273;24054;-63
2022/03/12 03:29:33;;;;;;;108.40;39.10;;;;;;;-6.76;66.71;100746.34;109588;1273;22580;-64
2022/03/12 03:32:01;;;;;;;106.30;36.90;;;;;;;-6.76;66.80;100747.42;109563;1273;22563;-64
2022/03/12 03:34:30;;;;;;;100.90;36.30;;;;;;;-6.75;66.81;100748.39;109602;1273;22267;-64
2022/03/12 03:36:59;;;;;;;85.80;33.90;;;;;;;-6.73;66.91;100746.33;106396;1273;22568;-61
2022/03/12 03:39:27;;;;;;;88.80;32.70;;;;;;;-6.72;67.03;100746.56;109608;1273;22254;-62
2022/03/12 03:41:57;;;;;;;74.40;30.00;;;;;;;-6.70;66.98;100741.88;109571;1273;23105;-63
2022/03/12 03:44:30;;;;;;;70.50;27.80;;;;;;;-6.70;66.91;100740.94;109580;1273;22539;-62
2022/03/12 03:47:36;;;;;;;77.70;29.10;;;;;;;-6.67;67.05;100741.06;109573;1272;22410;-63
2022/03/12 03:50:08;;;;;;;66.20;26.40;;;;;;;-6.64;67.11;100738.23;109571;1273;22551;-64
2022/03/12 03:53:14;;;;;;;64.50;25.00;;;;;;;-6.64;67.19;100734.29;109597;1273;22679;-62
2022/03/12 03:55:43;;;;;;;58.50;24.20;;;;;;;-6.58;67.23;100735.23;109589;1273;22448;-64
2022/03/12 03:58:49;;;;;;;61.60;23.20;;;;;;;-6.54;67.16;100737.95;109593;1272;22435;-64
2022/03/12 04:01:18;;;;;;;52.00;20.30;;;;;;;-6.50;67.25;100734.30;109572;1272;23332;-64
2022/03/12 04:04:29;;;;;;;59.00;23.70;;;;;;;-6.47;67.23;100733.88;109632;1272;22451;-64
2022/03/12 04:06:58;;;;;;;51.10;20.80;;;;;;;-6.44;67.25;100730.58;109642;1272;22433;-64
2022/03/12 04:10:04;;;;;;;54.40;22.50;;;;;;;-6.41;67.16;100728.95;109637;1272;23324;-64
2022/03/12 04:12:34;;;;;;;45.60;19.30;;;;;;;-6.36;67.29;100729.32;109569;1273;23143;-64
2022/03/12 04:15:03;;;;;;;42.90;20.00;;;;;;;-6.34;67.20;100730.88;109608;1273;22447;-64
2022/03/12 04:17:37;;;;;;;39.80;17.00;;;;;;;-6.31;67.17;100730.50;105296;1274;22684;-63
2022/03/12 04:20:05;;;;;;;45.20;16.80;;;;;;;-6.29;67.09;100729.23;109560;1273;22470;-63
2022/03/12 04:22:38;;;;;;;42.70;16.60;;;;;;;-6.29;67.23;100729.63;109574;1273;22403;-64
2022/03/12 04:25:11;;;;;;;45.50;18.40;;;;;;;-6.25;67.23;100737.40;109516;1273;22487;-64
2022/03/12 04:27:44;;;;;;;42.10;16.80;;;;;;;-6.23;67.11;100731.25;109503;1273;22446;-64
2022/03/12 04:30:12;;;;;;;43.30;16.50;;;;;;;-6.22;67.06;100724.11;109556;1273;22456;-64
2022/03/12 04:32:42;;;;;;;40.50;16.40;;;;;;;-6.20;67.10;100725.84;109576;1272;22244;-63
2022/03/12 04:35:10;;;;;;;37.50;16.40;;;;;;;-6.18;67.18;100717.94;109620;1274;22527;-66
2022/03/12 04:37:38;;;;;;;39.50;16.00;;;;;;;-6.19;67.18;100713.92;109556;1273;23001;-65
2022/03/12 04:40:10;;;;;;;39.60;15.60;;;;;;;-6.15;67.13;100714.88;109530;1274;22416;-64
2022/03/12 04:42:40;;;;;;;36.80;15.20;;;;;;;-6.13;67.23;100715.39;109513;1274;22400;-65
2022/03/12 04:45:10;;;;;;;36.90;14.60;;;;;;;-6.10;67.25;100715.69;109599;1274;22371;-65
2022/03/12 04:47:42;;;;;;;33.60;14.00;;;;;;;-6.07;67.11;100715.83;109480;1273;22431;-65
2022/03/12 04:50:12;;;;;;;41.30;15.80;;;;;;;-6.05;67.11;100716.86;109582;1272;22415;-66
2022/03/12 04:52:45;;;;;;;38.90;15.30;;;;;;;-6.04;67.09;100711.15;109611;1272;23566;-67
2022/03/12 04:55:16;;;;;;;32.90;13.80;;;;;;;-5.98;67.06;100716.36;109610;1272;22455;-69
2022/03/12 04:57:44;;;;;;;30.80;14.00;;;;;;;-5.94;67.21;100718.84;109568;1272;22520;-64
2022/03/12 05:00:17;;;;;;;36.20;14.90;;;;;;;-5.90;67.25;100713.56;109613;1273;22413;-66
2022/03/12 05:02:45;;;;;;;36.80;14.20;;;;;;;-5.86;67.25;100716.05;109493;1274;22441;-66
2022/03/12 05:05:15;;;;;;;39.70;14.30;;;;;;;-5.81;67.25;100718.14;109627;1272;22420;-67
2022/03/12 05:07:43;;;;;;;36.30;15.10;;;;;;;-5.76;67.43;100720.55;109564;1274;22506;-65
2022/03/12 05:10:31;;;;;;;40.60;15.40;;;;;;;-5.70;67.38;100722.73;109502;1274;22540;-65
2022/03/12 05:13:02;;;;;;;34.70;15.00;;;;;;;-5.66;67.42;100718.17;109606;1273;22419;-65
2022/03/12 05:15:36;;;;;;;32.10;14.90;;;;;;;-5.64;67.53;100720.45;109586;1273;22510;-67
2022/03/12 05:18:13;;;;;;;40.70;17.50;;;;;;;-5.62;67.59;100717.23;109542;1272;23168;-67
2022/03/12 05:20:48;;;;;;;48.60;20.60;;;;;;;-5.62;67.52;100718.48;109511;1274;22422;-64
2022/03/12 05:23:19;;;;;;;56.90;22.60;;;;;;;-5.61;67.52;100713.65;109491;1274;23262;-64
2022/03/12 05:26:00;;;;;;;65.20;25.50;;;;;;;-5.60;67.44;100708.21;109546;1272;22608;-66
2022/03/12 05:28:32;;;;;;;62.60;26.30;;;;;;;-5.58;67.37;100707.90;109566;1274;22449;-68
2022/03/12 05:31:04;;;;;;;70.20;27.20;;;;;;;-5.54;67.30;100704.59;109512;1274;22412;-66
2022/03/12 05:33:34;;;;;;;83.00;27.70;;;;;;;-5.51;66.97;100699.20;109574;1272;22395;-64
2022/03/12 05:36:03;;;;;;;69.50;25.40;;;;;;;-5.47;66.86;100696.73;109591;1272;22399;-66
2022/03/12 05:38:34;;;;;;;56.60;22.00;;;;;;;-5.42;66.84;100698.94;109553;1272;22435;-68
2022/03/12 05:41:09;;;;;;;52.20;22.00;;;;;;;-5.35;66.94;100698.73;109553;1273;22429;-65
2022/03/12 05:43:40;;;;;;;58.80;22.40;;;;;;;-5.23;66.95;100699.90;109525;1274;23145;-63
2022/03/12 05:46:08;;;;;;;53.60;22.60;;;;;;;-5.09;66.85;100698.83;107860;1274;26655;-63
2022/03/12 05:48:37;;;;;;;65.40;23.50;;;;;;;-4.93;66.96;100695.95;109506;1274;22529;-65
2022/03/12 05:51:09;;;;;;;47.10;20.40;;;;;;;-4.78;66.61;100696.06;109563;1273;22415;-63
2022/03/12 05:53:38;;;;;;;46.40;19.30;;;;;;;-4.63;66.82;100697.24;109570;1272;22427;-63
2022/03/12 05:56:06;;;;;;;40.70;17.20;;;;;;;-4.49;65.91;100697.30;109577;1272;22415;-64
2022/03/12 05:58:36;;;;;;;38.60;15.50;;;;;;;-4.35;65.63;100693.89;109519;1273;23952;-64
2022/03/12 06:01:05;;;;;;;41.20;17.20;;;;;;;-4.20;65.36;100690.44;109568;1273;22379;-64
2022/03/12 06:03:33;;;;;;;45.20;16.90;;;;;;;-4.06;65.15;100692.54;109518;1273;22439;-63
2022/03/12 06:06:01;;;;;;;39.70;14.80;;;;;;;-3.91;64.88;100687.34;109504;1273;23279;-64
2022/03/12 06:08:29;;;;;;;30.10;13.30;;;;;;;-3.76;64.26;100684.00;109595;1272;22537;-64
2022/03/12 06:10:58;;;;;;;37.90;15.40;;;;;;;-3.64;63.33;100683.23;109540;1273;22408;-64
2022/03/12 06:13:31;;;;;;;34.80;13.60;;;;;;;-3.51;62.62;100679.27;109570;1273;22431;-64
2022/03/12 06:16:00;;;;;;;41.70;16.50;;;;;;;-3.41;62.09;100680.61;109551;1273;22435;-64
2022/03/12 06:18:34;;;;;;;37.50;14.60;;;;;;;-3.30;61.58;100683.89;109519;1273;22513;-64
2022/03/12 06:21:03;;;;;;;40.10;16.10;;;;;;;-3.22;61.26;100683.73;109547;1273;22546;-64
2022/03/12 06:23:32;;;;;;;34.50;15.10;;;;;;;-3.16;60.93;100683.69;109557;1273;22294;-64
2022/03/12 06:26:02;;;;;;;36.60;13.70;;;;;;;-3.09;60.71;100679.88;109595;1273;23212;-64
2022/03/12 06:28:33;;;;;;;29.60;12.00;;;;;;;-3.01;60.47;100674.95;109511;1273;22413;-64
2022/03/12 06:31:02;;;;;;;33.30;13.00;;;;;;;-2.94;60.16;100665.45;109610;1273;22438;-65
2022/03/12 06:33:31;;;;;;;33.90;11.90;;;;;;;-2.80;59.68;100667.84;109530;1273;23184;-65
2022/03/12 06:36:02;;;;;;;29.70;12.60;;;;;;;-2.69;59.17;100670.23;109545;1274;23209;-64
2022/03/12 06:38:30;;;;;;;27.20;12.80;;;;;;;-2.60;58.57;100671.06;109475;1274;22463;-64
2022/03/12 06:40:59;;;;;;;26.20;10.60;;;;;;;-2.54;57.70;100670.14;109558;1273;22439;-65
2022/03/12 06:43:28;;;;;;;25.70;10.90;;;;;;;-2.48;57.45;100667.49;109535;1273;22465;-64
2022/03/12 06:45:58;;;;;;;27.30;10.60;;;;;;;-2.43;57.45;100665.77;109534;1273;22488;-65
2022/03/12 06:48:26;;;;;;;31.00;11.60;;;;;;;-2.35;57.10;100662.29;109517;1273;22441;-66
2022/03/12 06:50:55;;;;;;;23.80;9.80;;;;;;;-2.27;56.68;100662.73;109523;1273;23183;-65
2022/03/12 06:53:23;;;;;;;23.10;9.60;;;;;;;-2.19;56.50;100662.56;109577;1273;23582;-66
2022/03/12 06:55:51;;;;;;;23.30;10.00;;;;;;;-2.12;56.35;100663.61;109550;1273;22542;-64
2022/03/12 06:58:19;;;;;;;23.40;10.50;;;;;;;-2.07;56.00;100662.98;109524;1273;22277;-65
2022/03/12 07:00:47;;;;;;;30.10;11.00;;;;;;;-2.01;55.92;100659.90;109499;1273;22628;-65
2022/03/12 07:03:16;;;;;;;23.20;9.60;;;;;;;-1.94;55.90;100657.56;109527;1273;23288;-65
2022/03/12 07:08:46;;;;;;;22.50;8.90;;;;;;;-1.73;55.50;100644.83;102634;1303;544944;-64
2022/03/12 07:11:15;;;;;;;23.40;9.10;;;;;;;-1.65;55.15;100646.38;108649;1284;22485;-65
2022/03/12 07:13:43;;;;;;;18.60;9.60;;;;;;;-1.57;54.73;100643.42;108701;1284;22645;-65
2022/03/12 07:16:11;;;;;;;22.20;9.80;;;;;;;-1.50;54.42;100640.24;108637;1284;22489;-65
2022/03/12 07:18:40;;;;;;;25.30;8.90;;;;;;;-1.45;53.93;100635.82;108612;1284;23433;-65
2022/03/12 07:21:08;;;;;;;22.70;10.50;;;;;;;-1.42;53.58;100638.48;108618;1284;22314;-65
2022/03/12 07:23:39;;;;;;;24.50;9.50;;;;;;;-1.38;53.57;100635.64;108386;1281;22440;-65
2022/03/12 07:26:07;;;;;;;27.20;9.40;;;;;;;-1.35;53.43;100632.27;108903;1281;22312;-65
2022/03/12 07:28:36;;;;;;;24.40;8.60;;;;;;;-1.30;53.92;100628.77;108883;1281;22453;-65
2022/03/12 07:31:04;;;;;;;15.60;7.50;;;;;;;-1.22;53.99;100624.05;108868;1281;22445;-65
2022/03/12 07:33:33;;;;;;;23.20;9.20;;;;;;;-1.14;53.79;100621.02;108867;1281;22453;-65
2022/03/12 07:36:03;;;;;;;16.50;7.90;;;;;;;-1.01;54.10;100613.39;108893;1281;22476;-65
2022/03/12 07:38:32;;;;;;;24.90;11.70;;;;;;;-0.90;53.93;100610.06;109326;1277;22542;-65
2022/03/12 07:41:00;;;;;;;27.00;11.20;;;;;;;-0.79;53.66;100603.38;109294;1277;22408;-66
2022/03/12 07:43:28;;;;;;;27.20;12.60;;;;;;;-0.69;53.49;100594.70;109312;1277;22466;-66
2022/03/12 07:46:03;;;;;;;27.60;11.20;;;;;;;-0.58;53.05;100595.14;109307;1277;23216;-65
2022/03/12 07:48:31;;;;;;;21.30;10.20;;;;;;;-0.48;53.41;100588.55;109287;1277;22459;-66
2022/03/12 07:51:09;;;;;;;23.50;8.80;;;;;;;-0.35;52.53;100587.16;109321;1277;22531;-65
2022/03/12 07:53:37;;;;;;;18.40;8.80;;;;;;;-0.23;52.21;100586.64;109282;1277;22438;-64
2022/03/12 07:56:05;;;;;;;18.10;8.40;;;;;;;-0.13;51.82;100580.38;107567;1280;25024;-64
2022/03/12 07:58:35;;;;;;;16.40;7.80;;;;;;;-0.03;51.31;100579.40;109071;1280;23205;-65
2022/03/12 08:01:05;;;;;;;17.90;6.60;;;;;;;0.05;50.70;100574.26;109142;1279;23570;-66
2022/03/12 08:03:35;;;;;;;15.40;6.50;;;;;;;0.16;50.18;100570.23;109196;1277;22723;-66
2022/03/12 08:06:05;;;;;;;17.00;6.40;;;;;;;0.25;48.88;100571.77;109184;1279;22442;-65
2022/03/12 08:08:34;;;;;;;13.50;5.50;;;;;;;0.30;48.69;100567.05;109137;1279;22975;-66
2022/03/12 08:13:48;;;;;;;20.70;9.30;;;;;;;0.44;48.24;100565.05;109196;1279;22363;-64
2022/03/12 08:16:17;;;;;;;21.20;8.10;;;;;;;0.51;47.91;100569.52;109173;1279;22613;-64
2022/03/12 08:18:45;;;;;;;12.60;6.30;;;;;;;0.57;47.47;100560.41;109131;1279;22442;-64
2022/03/12 08:21:13;;;;;;;11.90;5.80;;;;;;;0.62;46.35;100562.88;109130;1279;23432;-64
2022/03/12 08:23:45;;;;;;;11.40;5.30;;;;;;;0.66;44.69;100557.95;109146;1279;22466;-65
2022/03/12 08:26:13;;;;;;;16.50;5.60;;;;;;;0.68;45.38;100555.88;109198;1279;22413;-65
2022/03/12 08:28:41;;;;;;;11.30;5.00;;;;;;;0.74;45.13;100554.25;109157;1279;22460;-66
2022/03/12 08:31:10;;;;;;;10.70;4.50;;;;;;;0.79;43.74;100555.97;109198;1279;22470;-65
2022/03/12 08:33:38;;;;;;;8.70;4.50;;;;;;;0.82;43.72;100555.43;109212;1279;22855;-65
2022/03/12 08:36:07;;;;;;;7.40;3.60;;;;;;;0.90;42.54;100555.67;109414;1275;22450;-66
2022/03/12 08:38:36;;;;;;;8.10;3.80;;;;;;;0.93;42.90;100553.89;109328;1277;23495;-66
2022/03/12 08:41:05;;;;;;;43.30;13.70;;;;;;;0.95;43.24;100544.30;109466;1276;22628;-66
2022/03/12 08:43:35;;;;;;;9.70;4.20;;;;;;;0.99;42.78;100546.76;109453;1276;24796;-65
2022/03/12 08:46:05;;;;;;;7.60;3.70;;;;;;;1.03;41.85;100546.13;109452;1275;22417;-66
2022/03/12 08:48:34;;;;;;;7.40;4.10;;;;;;;1.06;42.22;100541.48;109479;1276;23497;-66
2022/03/12 08:51:03;;;;;;;8.90;3.90;;;;;;;1.11;42.57;100538.13;109320;1276;22437;-66
2022/03/12 08:53:31;;;;;;;6.90;3.80;;;;;;;1.16;42.33;100540.36;109450;1277;22552;-66
2022/03/12 08:56:00;;;;;;;7.90;4.10;;;;;;;1.22;41.88;100537.39;109414;1276;22505;-65
2022/03/12 08:58:29;;;;;;;8.20;4.30;;;;;;;1.26;41.47;100532.85;109443;1277;22420;-65
2022/03/12 09:01:00;;;;;;;8.00;4.30;;;;;;;1.32;40.92;100534.06;109416;1277;22453;-65
2022/03/12 09:03:30;;;;;;;9.00;3.60;;;;;;;1.37;40.83;100534.21;109436;1276;23468;-65
2022/03/12 09:05:58;;;;;;;7.70;3.70;;;;;;;1.44;40.52;100523.58;109383;1277;22540;-65
2022/03/12 09:08:26;;;;;;;8.30;3.90;;;;;;;1.51;40.29;100520.52;109368;1277;22539;-65
2022/03/12 09:10:55;;;;;;;9.40;3.60;;;;;;;1.57;39.99;100516.00;109366;1276;22428;-65
2022/03/12 09:13:23;;;;;;;7.70;3.80;;;;;;;1.62;39.32;100520.80;109391;1276;22424;-66
2022/03/12 09:15:51;;;;;;;6.50;3.70;;;;;;;1.65;39.34;100520.05;109391;1275;22562;-66
2022/03/12 09:18:20;;;;;;;7.30;4.00;;;;;;;1.67;39.10;100515.78;109413;1275;22502;-66
2022/03/12 09:20:49;;;;;;;8.40;4.10;;;;;;;1.70;38.99;100513.83;109385;1276;23347;-66
2022/03/12 09:23:19;;;;;;;7.50;3.80;;;;;;;1.73;38.94;100505.66;109399;1275;22428;-66
2022/03/12 09:25:48;;;;;;;10.10;4.30;;;;;;;1.79;38.92;100504.15;109463;1276;22251;-65
2022/03/12 09:28:20;;;;;;;8.90;3.90;;;;;;;1.83;38.76;100507.27;109345;1277;22685;-66
2022/03/12 09:30:51;;;;;;;11.70;4.80;;;;;;;1.88;37.54;100503.99;109377;1276;22474;-66
2022/03/12 09:33:20;;;;;;;9.60;5.00;;;;;;;1.92;37.01;100504.67;109481;1276;22418;-66
2022/03/12 09:35:50;;;;;;;11.20;5.40;;;;;;;1.94;36.89;100494.52;109468;1275;22357;-66
2022/03/12 09:38:18;;;;;;;11.50;5.10;;;;;;;1.97;36.89;100492.73;109324;1277;22367;-66
2022/03/12 09:40:46;;;;;;;10.90;4.70;;;;;;;2.01;36.75;100485.69;109486;1276;22453;-65
2022/03/12 09:43:14;;;;;;;8.60;4.40;;;;;;;2.06;37.00;100484.65;109433;1276;22420;-65
2022/03/12 09:45:42;;;;;;;8.50;5.00;;;;;;;2.13;36.87;100482.94;109309;1276;22388;-65
2022/03/12 09:48:11;;;;;;;11.80;5.90;;;;;;;2.20;37.06;100481.30;109337;1276;23428;-66
2022/03/12 09:50:39;;;;;;;12.90;5.80;;;;;;;2.25;36.68;100476.73;109321;1276;22533;-66
2022/03/12 09:53:07;;;;;;;9.00;6.00;;;;;;;2.27;36.65;100473.08;109421;1275;22467;-66
2022/03/12 09:55:38;;;;;;;16.30;7.30;;;;;;;2.29;36.67;100474.11;109418;1275;22425;-66
2022/03/12 09:58:07;;;;;;;18.10;8.80;;;;;;;2.30;35.87;100475.23;109431;1275;22588;-66
2022/03/12 10:00:35;;;;;;;13.90;7.20;;;;;;;2.31;36.16;100477.33;109458;1276;22416;-65
2022/03/12 10:03:05;;;;;;;14.60;7.00;;;;;;;2.29;36.18;100478.17;109394;1275;22391;-65
2022/03/12 10:05:34;;;;;;;17.70;8.10;;;;;;;2.27;35.96;100471.77;109388;1276;22433;-66
2022/03/12 10:08:03;;;;;;;15.30;7.70;;;;;;;2.26;36.26;100471.16;109454;1276;22477;-66
2022/03/12 10:10:31;;;;;;;10.90;5.70;;;;;;;2.22;36.29;100464.55;109447;1276;22453;-65
2022/03/12 10:12:59;;;;;;;15.60;7.10;;;;;;;2.24;36.56;100459.83;109463;1276;22608;-65
2022/03/12 10:15:28;;;;;;;17.10;7.40;;;;;;;2.24;36.84;100454.65;109388;1276;23239;-66
2022/03/12 10:17:57;;;;;;;11.50;6.00;;;;;;;2.25;37.03;100452.27;109428;1276;22507;-65
2022/03/12 10:20:25;;;;;;;13.10;5.90;;;;;;;2.32;37.50;100450.11;109401;1275;22420;-65
2022/03/12 10:22:54;;;;;;;11.00;5.70;;;;;;;2.38;37.00;100446.12;109427;1277;22440;-66
2022/03/12 10:25:23;;;;;;;14.80;6.90;;;;;;;2.43;37.14;100441.39;109422;1275;22401;-65
2022/03/12 10:27:51;;;;;;;18.70;7.40;;;;;;;2.46;36.61;100437.42;109438;1276;22447;-65
2022/03/12 10:30:19;;;;;;;14.80;8.50;;;;;;;2.47;36.90;100429.79;109424;1276;22466;-65
2022/03/12 10:32:48;;;;;;;24.30;8.60;;;;;;;2.53;37.49;100425.84;109447;1276;22401;-65
2022/03/12 10:35:20;;;;;;;14.10;7.40;;;;;;;2.60;37.41;100420.39;109276;1276;22421;-66
2022/03/12 10:37:52;;;;;;;14.20;7.30;;;;;;;2.66;37.60;100421.05;109393;1275;22446;-65
2022/03/12 10:40:25;;;;;;;15.60;7.60;;;;;;;2.72;37.80;100418.67;109413;1276;22251;-65
2022/03/12 10:42:59;;;;;;;21.80;9.50;;;;;;;2.78;37.18;100412.98;109435;1275;22453;-65
2022/03/12 10:45:31;;;;;;;14.50;7.80;;;;;;;2.82;37.24;100411.85;109441;1275;22513;-65
2022/03/12 10:48:02;;;;;;;18.20;9.00;;;;;;;2.85;37.04;100404.66;109361;1277;22428;-65
2022/03/12 10:50:42;;;;;;;18.50;9.50;;;;;;;2.87;37.22;100401.86;109396;1275;22452;-65
2022/03/12 10:53:10;;;;;;;15.50;8.70;;;;;;;2.91;37.49;100401.89;109384;1276;23189;-66
2022/03/12 10:55:41;;;;;;;13.10;7.20;;;;;;;2.93;37.38;100396.52;109468;1275;22465;-65
2022/03/12 10:58:12;;;;;;;16.00;7.50;;;;;;;2.93;37.21;100388.10;109471;1275;22545;-65
2022/03/12 11:00:44;;;;;;;19.50;8.30;;;;;;;2.93;37.49;100384.36;109415;1275;22600;-65
2022/03/12 11:03:16;;;;;;;16.20;7.30;;;;;;;2.95;37.70;100378.73;109452;1276;22538;-66
2022/03/12 11:05:46;;;;;;;19.80;7.90;;;;;;;2.99;37.58;100375.26;109398;1276;23272;-65
2022/03/12 11:08:19;;;;;;;13.60;8.00;;;;;;;3.00;37.74;100373.80;109370;1277;22454;-66
2022/03/12 11:11:14;;;;;;;14.90;8.20;;;;;;;3.01;37.71;100365.78;109428;1275;22433;-65
2022/03/12 11:13:47;;;;;;;17.00;9.30;;;;;;;3.03;38.01;100361.58;109284;1277;22545;-66
2022/03/12 11:16:27;;;;;;;18.40;9.80;;;;;;;3.06;38.30;100366.23;107472;1275;22772;-65
2022/03/12 11:19:17;;;;;;;16.90;10.00;;;;;;;3.10;38.57;100366.21;109438;1276;22466;-66
2022/03/12 11:21:52;;;;;;;18.20;10.00;;;;;;;3.14;38.41;100363.98;109391;1276;22389;-66
2022/03/12 11:24:28;;;;;;;18.90;8.80;;;;;;;3.17;38.91;100359.13;109441;1275;22542;-68
2022/03/12 11:27:00;;;;;;;17.30;9.30;;;;;;;3.21;38.53;100364.38;109327;1277;22424;-66
2022/03/12 11:29:29;;;;;;;22.30;8.20;;;;;;;3.21;38.69;100366.33;109459;1275;22521;-66
2022/03/12 11:32:04;;;;;;;18.00;9.10;;;;;;;3.21;38.69;100363.51;109365;1275;22425;-66
2022/03/12 11:34:38;;;;;;;16.90;9.30;;;;;;;3.20;38.63;100361.01;109443;1275;22434;-66
2022/03/12 11:37:16;;;;;;;19.10;9.30;;;;;;;3.20;38.76;100363.00;109365;1275;23576;-66
2022/03/12 11:39:51;;;;;;;20.60;10.50;;;;;;;3.21;39.09;100356.70;109408;1275;22235;-66
2022/03/12 11:42:22;;;;;;;19.90;9.90;;;;;;;3.22;39.16;100355.48;109431;1276;22423;-66
2022/03/12 11:44:54;;;;;;;20.30;8.80;;;;;;;3.20;39.20;100353.02;109476;1275;22438;-66